createdAt,value
2019-03-12T00:01:08.760Z,4.96
2019-03-12T00:03:55.386Z,4.91
2019-03-12T00:06:41.935Z,4.65
2019-03-12T00:09:28.884Z,4.86
2019-03-12T00:12:16.787Z,4.85
2019-03-12T00:15:03.580Z,4.85
2019-03-12T00:17:50.276Z,4.80
2019-03-12T00:20:37.110Z,4.75
2019-03-12T00:23:23.619Z,4.83
2019-03-12T00:26:10.670Z,4.76
2019-03-12T00:28:57.680Z,4.60
2019-03-12T00:31:44.328Z,4.66
2019-03-12T00:34:31.640Z,4.73
2019-03-12T00:37:18.069Z,4.81
2019-03-12T00:40:05.338Z,4.56
2019-03-12T00:42:52.302Z,4.63
2019-03-12T00:45:39.362Z,4.75
2019-03-12T00:48:27.660Z,4.63
2019-03-12T00:51:15.136Z,4.63
2019-03-12T00:54:01.588Z,4.62
2019-03-12T00:56:47.856Z,4.55
2019-03-12T00:59:34.772Z,4.55
2019-03-12T01:02:21.512Z,4.33
2019-03-12T01:05:08.856Z,4.25
2019-03-12T01:07:56.142Z,4.15
2019-03-12T01:10:42.896Z,4.23
2019-03-12T01:13:29.494Z,4.15
2019-03-12T01:16:16.428Z,4.12
2019-03-12T01:19:03.772Z,3.94
2019-03-12T01:21:50.416Z,3.88
2019-03-12T01:24:37.783Z,3.99
2019-03-12T01:27:24.487Z,3.96
2019-03-12T01:30:13.327Z,4.06
2019-03-12T01:33:00.189Z,3.86
2019-03-12T01:35:47.520Z,3.93
2019-03-12T01:38:34.056Z,3.84
2019-03-12T01:41:21.225Z,3.77
2019-03-12T01:44:07.620Z,3.87
2019-03-12T01:46:54.556Z,3.77
2019-03-12T01:49:41.368Z,3.68
2019-03-12T01:52:28.618Z,3.57
2019-03-12T01:55:14.956Z,3.60
2019-03-12T01:58:02.003Z,3.68
2019-03-12T02:00:48.885Z,3.52
2019-03-12T02:03:35.440Z,3.52
2019-03-12T02:06:22.484Z,3.57
2019-03-12T02:09:10.004Z,3.39
2019-03-12T02:11:56.745Z,3.61
2019-03-12T02:14:43.739Z,3.47
2019-03-12T02:17:31.372Z,3.36
2019-03-12T02:20:20.141Z,3.42
2019-03-12T02:23:07.234Z,3.36
2019-03-12T02:25:54.896Z,3.31
2019-03-12T02:28:41.721Z,3.44
2019-03-12T02:31:29.214Z,3.26
2019-03-12T02:34:15.895Z,3.30
2019-03-12T02:37:02.795Z,3.19
2019-03-12T02:39:49.581Z,3.31
2019-03-12T02:42:36.539Z,3.23
2019-03-12T02:45:23.319Z,3.16
2019-03-12T02:48:10.618Z,3.11
2019-03-12T02:50:57.377Z,3.14
2019-03-12T02:53:44.012Z,3.19
2019-03-12T02:56:30.962Z,3.21
2019-03-12T02:59:18.007Z,3.24
2019-03-12T03:02:04.876Z,3.19
2019-03-12T03:04:54.199Z,3.17
2019-03-12T03:07:57.889Z,2.92
2019-03-12T03:10:44.351Z,2.92
2019-03-12T03:13:31.039Z,2.81
2019-03-12T03:16:17.711Z,2.87
2019-03-12T03:19:04.086Z,2.92
2019-03-12T03:21:51.386Z,2.95
2019-03-12T03:24:38.893Z,2.77
2019-03-12T03:27:29.339Z,2.83
2019-03-12T03:30:18.074Z,2.79
2019-03-12T03:33:05.095Z,2.79
2019-03-12T03:35:51.531Z,2.80
2019-03-12T03:38:38.826Z,2.94
2019-03-12T03:41:25.311Z,2.94
2019-03-12T03:44:11.940Z,2.77
2019-03-12T03:46:59.446Z,2.84
2019-03-12T03:49:46.609Z,2.78
2019-03-12T03:52:33.398Z,2.75
2019-03-12T03:55:21.298Z,2.76
2019-03-12T03:58:08.006Z,2.71
2019-03-12T04:00:54.722Z,2.86
2019-03-12T04:03:41.736Z,2.80
2019-03-12T04:06:32.343Z,2.74
2019-03-12T04:09:17.206Z,2.70
2019-03-12T04:12:04.664Z,2.80
2019-03-12T04:14:50.920Z,2.85
2019-03-12T04:17:37.651Z,2.97
2019-03-12T04:20:24.268Z,2.81
2019-03-12T04:23:15.804Z,2.94
2019-03-12T04:26:01.601Z,2.90
2019-03-12T04:28:48.272Z,2.91
2019-03-12T04:31:35.458Z,2.94
2019-03-12T04:34:31.989Z,3.01
2019-03-12T04:37:18.103Z,3.07
2019-03-12T04:40:05.453Z,3.04
2019-03-12T04:42:52.647Z,3.28
2019-03-12T04:45:39.569Z,3.19
2019-03-12T04:48:26.186Z,3.19
2019-03-12T04:51:13.629Z,3.17
2019-03-12T04:54:00.193Z,3.25
2019-03-12T04:56:46.884Z,3.28
2019-03-12T04:59:33.881Z,3.48
2019-03-12T05:02:20.893Z,3.40
2019-03-12T05:05:07.806Z,3.28
2019-03-12T05:07:54.738Z,3.27
2019-03-12T05:10:41.280Z,3.45
2019-03-12T05:13:28.197Z,3.42
2019-03-12T05:16:15.165Z,3.41
2019-03-12T05:19:02.790Z,3.46
2019-03-12T05:21:49.955Z,3.60
2019-03-12T05:24:37.482Z,3.33
2019-03-12T05:27:25.112Z,3.43
2019-03-12T05:30:15.053Z,3.16
2019-03-12T05:33:02.355Z,3.21
2019-03-12T05:35:52.114Z,3.14
2019-03-12T05:38:38.842Z,3.21
2019-03-12T05:41:26.031Z,3.26
2019-03-12T05:44:12.417Z,3.10
2019-03-12T05:46:59.641Z,3.20
2019-03-12T05:49:46.778Z,3.30
2019-03-12T05:52:33.371Z,3.41
2019-03-12T05:55:21.500Z,3.23
2019-03-12T05:58:08.366Z,3.29
2019-03-12T06:00:54.891Z,3.25
2019-03-12T06:03:42.310Z,3.40
2019-03-12T06:06:32.428Z,3.43
2019-03-12T06:09:30.765Z,3.52
2019-03-12T06:12:18.231Z,3.46
2019-03-12T06:15:05.659Z,3.38
2019-03-12T06:17:52.225Z,3.64
2019-03-12T06:20:38.866Z,3.70
2019-03-12T06:23:25.683Z,3.68
2019-03-12T06:26:16.060Z,3.65
2019-03-12T06:29:02.812Z,3.39
2019-03-12T06:32:10.075Z,3.68
2019-03-12T06:35:06.921Z,3.68
2019-03-12T06:38:08.512Z,3.92
2019-03-12T06:41:17.403Z,3.95
2019-03-12T06:44:26.027Z,3.95
2019-03-12T06:47:21.865Z,4.22
2019-03-12T06:50:25.799Z,4.05
2019-03-12T06:53:36.696Z,4.29
2019-03-12T06:57:01.619Z,4.52
2019-03-12T07:00:01.662Z,4.78
2019-03-12T07:02:58.278Z,5.00
2019-03-12T07:06:03.019Z,4.80
2019-03-12T07:09:12.071Z,5.01
2019-03-12T07:12:06.880Z,4.87
2019-03-12T07:15:19.624Z,5.17
2019-03-12T07:18:25.595Z,4.92
2019-03-12T07:21:34.247Z,5.29
2019-03-12T07:24:51.996Z,5.25
2019-03-12T07:27:48.075Z,5.19
2019-03-12T07:31:11.813Z,5.31
2019-03-12T07:34:18.194Z,5.46
2019-03-12T07:37:24.120Z,6.98
2019-03-12T07:40:29.283Z,7.07
2019-03-12T07:43:47.323Z,6.58
2019-03-12T07:46:47.245Z,6.15
2019-03-12T07:49:52.011Z,6.16
2019-03-12T07:53:07.910Z,5.81
2019-03-12T07:56:07.046Z,6.13
2019-03-12T07:59:01.922Z,5.92
2019-03-12T08:02:10.086Z,5.78
2019-03-12T08:05:05.217Z,5.57
2019-03-12T08:08:29.246Z,5.85
2019-03-12T08:11:49.540Z,5.58
2019-03-12T08:15:04.536Z,6.12
2019-03-12T08:18:09.791Z,6.04
2019-03-12T08:21:22.666Z,6.20
2019-03-12T08:24:33.021Z,6.25
2019-03-12T08:27:45.141Z,6.36
2019-03-12T08:30:40.043Z,6.49
2019-03-12T08:33:53.920Z,6.81
2019-03-12T08:37:01.319Z,6.66
2019-03-12T08:40:10.983Z,6.64
2019-03-12T08:43:35.476Z,7.21
2019-03-12T08:46:52.110Z,7.04
2019-03-12T08:49:55.036Z,7.23
2019-03-12T08:53:01.212Z,6.88
2019-03-12T08:56:07.704Z,6.85
2019-03-12T08:59:12.236Z,6.99
2019-03-12T09:02:22.720Z,7.23
2019-03-12T09:05:30.034Z,6.91
2019-03-12T09:08:36.938Z,7.02
2019-03-12T09:11:52.538Z,6.94
2019-03-12T09:15:05.256Z,7.31
2019-03-12T09:18:04.175Z,7.11
2019-03-12T09:21:10.869Z,7.14
2019-03-12T09:24:17.696Z,7.26
2019-03-12T09:27:22.761Z,7.56
2019-03-12T09:30:29.348Z,7.65
2019-03-12T09:33:30.624Z,7.64
2019-03-12T09:36:32.941Z,7.43
2019-03-12T09:39:47.909Z,7.64
2019-03-12T09:43:02.496Z,7.57
2019-03-12T09:46:14.918Z,7.63
2019-03-12T09:49:20.077Z,7.37
2019-03-12T09:52:27.084Z,7.66
2019-03-12T09:55:30.973Z,7.70
2019-03-12T09:58:31.567Z,7.72
2019-03-12T10:01:40.616Z,7.87
2019-03-12T10:04:39.320Z,7.76
2019-03-12T10:07:50.221Z,7.82
2019-03-12T10:10:46.565Z,7.67
2019-03-12T10:13:39.340Z,7.85
2019-03-12T10:16:44.501Z,7.83
2019-03-12T10:19:49.645Z,8.01
2019-03-12T10:22:57.728Z,8.07
2019-03-12T10:26:17.730Z,8.18
2019-03-12T10:29:18.569Z,7.89
2019-03-12T10:32:09.786Z,8.24
2019-03-12T10:35:10.677Z,8.21
2019-03-12T10:38:47.637Z,8.13
2019-03-12T10:41:46.042Z,8.49
2019-03-12T10:44:44.337Z,8.34
2019-03-12T10:47:32.866Z,7.99
2019-03-12T10:50:19.994Z,8.25
2019-03-12T10:53:06.331Z,8.55
2019-03-12T10:55:52.785Z,8.27
2019-03-12T10:58:40.221Z,8.52
2019-03-12T11:01:26.685Z,8.49
2019-03-12T11:04:13.653Z,8.72
2019-03-12T11:07:15.479Z,8.53
2019-03-12T11:09:51.993Z,8.41
2019-03-12T11:12:38.221Z,8.58
2019-03-12T11:15:25.301Z,8.43
2019-03-12T11:18:12.217Z,8.62
2019-03-12T11:20:59.107Z,8.83
2019-03-12T11:23:45.454Z,8.85
2019-03-12T11:26:32.290Z,9.16
2019-03-12T11:29:19.350Z,9.01
2019-03-12T11:32:06.489Z,8.95
2019-03-12T11:34:58.167Z,8.86
2019-03-12T11:37:44.978Z,8.97
2019-03-12T11:40:32.994Z,9.03
2019-03-12T11:43:19.664Z,9.14
2019-03-12T11:46:06.622Z,9.13
2019-03-12T11:48:55.161Z,9.29
2019-03-12T11:51:42.582Z,9.13
2019-03-12T11:54:36.605Z,9.27
2019-03-12T11:57:23.845Z,9.41
2019-03-12T12:00:19.538Z,9.49
2019-03-12T12:03:08.684Z,9.76
2019-03-12T12:05:55.506Z,9.52
2019-03-12T12:08:42.569Z,9.25
2019-03-12T12:11:29.580Z,9.40
2019-03-12T12:14:15.975Z,9.62
2019-03-12T12:17:03.668Z,9.96
2019-03-12T12:19:50.341Z,9.90
2019-03-12T12:22:39.589Z,10.30
2019-03-12T12:25:28.552Z,10.01
2019-03-12T12:28:19.856Z,9.43
2019-03-12T12:31:06.709Z,9.70
2019-03-12T12:33:53.748Z,9.94
2019-03-12T12:36:40.067Z,9.87
2019-03-12T12:39:27.196Z,9.84
2019-03-12T12:42:13.996Z,10.07
2019-03-12T12:45:00.381Z,9.97
2019-03-12T12:47:47.068Z,10.05
2019-03-12T12:50:33.788Z,9.86
2019-03-12T12:53:20.501Z,10.13
2019-03-12T12:56:09.784Z,9.89
2019-03-12T12:58:56.577Z,10.11
2019-03-12T13:01:43.190Z,10.19
2019-03-12T13:04:30.408Z,10.08
2019-03-12T13:07:16.916Z,10.17
2019-03-12T13:10:04.151Z,10.20
2019-03-12T13:12:51.357Z,10.42
2019-03-12T13:15:42.136Z,10.27
2019-03-12T13:18:29.109Z,10.17
2019-03-12T13:21:17.279Z,10.33
2019-03-12T13:24:03.729Z,10.52
2019-03-12T13:26:50.635Z,10.29
2019-03-12T13:29:39.061Z,10.41
2019-03-12T13:32:28.482Z,10.28
2019-03-12T13:35:19.258Z,10.20
2019-03-12T13:38:05.898Z,10.37
2019-03-12T13:40:56.881Z,10.54
2019-03-12T13:43:43.885Z,10.53
2019-03-12T13:46:30.845Z,10.81
2019-03-12T13:49:20.370Z,10.77
2019-03-12T13:52:07.794Z,10.83
2019-03-12T13:54:54.746Z,10.62
2019-03-12T13:57:41.243Z,10.94
2019-03-12T14:00:33.391Z,10.85
2019-03-12T14:03:21.572Z,10.52
2019-03-12T14:06:10.043Z,10.34
2019-03-12T14:08:57.269Z,10.85
2019-03-12T14:11:43.753Z,10.92
2019-03-12T14:14:30.584Z,10.74
2019-03-12T14:17:17.471Z,11.03
2019-03-12T14:20:42.389Z,10.58
2019-03-12T14:23:35.608Z,10.12
2019-03-12T14:26:22.376Z,10.20
2019-03-12T14:29:11.212Z,10.02
2019-03-12T14:32:01.157Z,10.20
2019-03-12T14:34:48.001Z,10.23
2019-03-12T14:37:36.106Z,10.22
2019-03-12T14:40:26.169Z,10.55
2019-03-12T14:43:13.080Z,10.02
2019-03-12T14:45:59.469Z,10.12
2019-03-12T14:48:54.597Z,10.40
2019-03-12T14:52:07.736Z,10.19
2019-03-12T14:54:56.192Z,10.18
2019-03-12T14:57:43.973Z,10.24
2019-03-12T15:00:30.409Z,10.41
2019-03-12T15:03:20.063Z,9.95
2019-03-12T15:06:10.457Z,10.08
2019-03-12T15:08:57.233Z,10.10
2019-03-12T15:11:43.672Z,9.94
2019-03-12T15:14:33.816Z,10.02
2019-03-12T15:17:20.480Z,9.92
2019-03-12T15:20:07.625Z,9.84
2019-03-12T15:22:54.236Z,9.81
2019-03-12T15:25:40.685Z,9.77
2019-03-12T15:28:31.585Z,9.79
2019-03-12T15:31:18.429Z,9.77
2019-03-12T15:34:09.724Z,9.82
2019-03-12T15:36:56.429Z,9.81
2019-03-12T15:39:46.054Z,9.68
2019-03-12T15:42:32.397Z,9.74
2019-03-12T15:45:19.881Z,9.73
2019-03-12T15:48:06.694Z,9.73
2019-03-12T15:50:52.951Z,9.81
2019-03-12T15:53:42.789Z,9.69
2019-03-12T15:56:34.618Z,9.56
2019-03-12T15:59:21.035Z,9.73
2019-03-12T16:02:10.157Z,9.60
2019-03-12T16:04:56.743Z,9.60
2019-03-12T16:07:43.698Z,9.55
2019-03-12T16:10:30.566Z,9.56
2019-03-12T16:13:22.548Z,9.55
2019-03-12T16:16:08.899Z,9.65
2019-03-12T16:18:55.598Z,9.59
2019-03-12T16:21:46.486Z,9.49
2019-03-12T16:24:38.909Z,9.50
2019-03-12T16:27:25.889Z,9.55
2019-03-12T16:30:15.764Z,9.55
2019-03-12T16:33:05.637Z,9.60
2019-03-12T16:35:52.345Z,9.60
2019-03-12T16:38:41.958Z,9.45
2019-03-12T16:41:28.530Z,9.45
2019-03-12T16:44:20.462Z,9.55
2019-03-12T16:47:06.863Z,9.51
2019-03-12T16:49:55.641Z,9.49
2019-03-12T16:52:45.636Z,9.53
2019-03-12T16:55:34.605Z,9.38
2019-03-12T16:58:20.762Z,9.55
2019-03-12T17:01:07.443Z,9.50
2019-03-12T17:03:53.957Z,9.49
2019-03-12T17:06:40.534Z,9.52
2019-03-12T17:09:30.158Z,9.44
2019-03-12T17:12:16.616Z,9.47
2019-03-12T17:15:03.810Z,9.57
2019-03-12T17:17:50.403Z,9.43
2019-03-12T17:20:37.506Z,9.52
2019-03-12T17:23:26.374Z,9.44
2019-03-12T17:26:12.850Z,9.55
2019-03-12T17:29:09.382Z,9.48
2019-03-12T17:31:56.685Z,9.47
2019-03-12T17:34:43.773Z,9.50
2019-03-12T17:37:30.998Z,9.46
2019-03-12T17:40:18.418Z,9.56
2019-03-12T17:43:07.828Z,9.48
2019-03-12T17:45:56.723Z,9.49
2019-03-12T17:48:43.654Z,9.47
2019-03-12T17:51:33.292Z,9.53
2019-03-12T17:54:20.435Z,9.53
2019-03-12T17:57:13.319Z,9.45
2019-03-12T18:00:01.880Z,9.53
2019-03-12T18:02:49.008Z,9.45
2019-03-12T18:05:38.618Z,9.55
2019-03-12T18:08:27.858Z,9.54
2019-03-12T18:11:14.599Z,9.64
2019-03-12T18:14:01.100Z,9.52
2019-03-12T18:16:51.867Z,9.49
2019-03-12T18:19:38.937Z,9.52
2019-03-12T18:22:28.826Z,9.59
2019-03-12T18:25:26.527Z,9.48
2019-03-12T18:28:13.287Z,9.55
2019-03-12T18:31:00.035Z,9.52
2019-03-12T18:33:47.284Z,9.51
2019-03-12T18:36:33.843Z,9.42
2019-03-12T18:39:20.763Z,9.46
2019-03-12T18:42:10.252Z,9.54
2019-03-12T18:44:58.318Z,9.59
2019-03-12T18:47:44.811Z,9.67
2019-03-12T18:50:35.585Z,9.57
2019-03-12T18:53:22.450Z,9.72
2019-03-12T18:56:11.519Z,9.61
2019-03-12T18:59:00.719Z,9.51
2019-03-12T19:01:46.887Z,9.47
2019-03-12T19:04:33.715Z,9.58
2019-03-12T19:07:20.602Z,9.51
2019-03-12T19:10:13.184Z,9.68
2019-03-12T19:13:00.558Z,9.65
2019-03-12T19:15:47.668Z,9.64
2019-03-12T19:18:37.104Z,9.71
2019-03-12T19:21:23.994Z,9.63
2019-03-12T19:24:14.457Z,9.71
2019-03-12T19:27:00.887Z,9.66
2019-03-12T19:29:47.851Z,9.68
2019-03-12T19:32:49.144Z,9.76
2019-03-12T19:35:39.807Z,9.59
2019-03-12T19:38:26.315Z,9.70
2019-03-12T19:41:15.799Z,9.69
2019-03-12T19:44:02.711Z,9.75
2019-03-12T19:46:53.511Z,9.82
2019-03-12T19:49:40.567Z,9.81
2019-03-12T19:52:34.064Z,9.75
2019-03-12T19:55:26.210Z,9.82
2019-03-12T19:58:13.475Z,9.93
2019-03-12T20:01:00.851Z,9.88
2019-03-12T20:03:47.653Z,9.79
2019-03-12T20:06:34.667Z,9.84
2019-03-12T20:10:08.653Z,9.89
2019-03-12T20:13:17.579Z,9.77
2019-03-12T20:17:08.972Z,9.78
2019-03-12T20:20:38.144Z,10.03
2019-03-12T20:24:21.668Z,10.00
2019-03-12T20:27:52.203Z,10.07
2019-03-12T20:31:23.465Z,10.05
2019-03-12T20:35:05.089Z,10.16
2019-03-12T20:38:39.579Z,10.00
2019-03-12T20:42:27.397Z,9.94
2019-03-12T20:45:48.750Z,9.76
2019-03-12T20:49:19.565Z,9.67
2019-03-12T20:52:46.386Z,9.49
2019-03-12T20:56:22.026Z,9.56
2019-03-12T20:59:55.537Z,9.44
2019-03-12T21:03:14.837Z,9.29
2019-03-12T21:06:32.177Z,9.08
2019-03-12T21:09:56.786Z,8.63
2019-03-12T21:13:39.129Z,8.55
2019-03-12T21:17:02.925Z,8.65
2019-03-12T21:20:28.262Z,8.61
2019-03-12T21:23:42.879Z,8.56
2019-03-12T21:27:29.279Z,8.54
2019-03-12T21:30:23.579Z,8.59
2019-03-12T21:33:15.643Z,8.71
2019-03-12T21:36:02.698Z,8.59
2019-03-12T21:38:51.141Z,8.69
2019-03-12T21:41:39.642Z,8.63
2019-03-12T21:44:29.878Z,8.71
2019-03-12T21:47:17.504Z,8.76
2019-03-12T21:50:04.679Z,8.84
2019-03-12T21:52:53.152Z,8.67
2019-03-12T21:55:40.591Z,8.66
2019-03-12T21:58:27.847Z,8.81
2019-03-12T22:01:14.455Z,8.77
2019-03-12T22:04:06.033Z,8.79
2019-03-12T22:06:52.563Z,8.70
2019-03-12T22:09:39.416Z,8.46
2019-03-12T22:12:28.055Z,7.83
2019-03-12T22:15:22.034Z,6.93
2019-03-12T22:18:08.735Z,6.47
2019-03-12T22:20:58.871Z,6.35
2019-03-12T22:23:48.023Z,6.27
2019-03-12T22:26:39.081Z,6.06
2019-03-12T22:29:29.037Z,5.84
2019-03-12T22:32:18.030Z,5.71
2019-03-12T22:35:05.922Z,5.48
2019-03-12T22:37:52.907Z,5.37
2019-03-12T22:40:39.654Z,5.33
2019-03-12T22:43:26.771Z,5.42
2019-03-12T22:46:13.791Z,5.32
2019-03-12T22:49:00.506Z,5.31
2019-03-12T22:51:47.165Z,5.43
2019-03-12T22:54:35.644Z,5.44
2019-03-12T22:57:24.559Z,5.44
2019-03-12T23:00:11.363Z,5.30
2019-03-12T23:03:02.052Z,5.40
2019-03-12T23:05:48.567Z,5.49
2019-03-12T23:08:35.403Z,5.20
2019-03-12T23:11:22.659Z,5.39
2019-03-12T23:14:09.596Z,5.17
2019-03-12T23:16:56.570Z,5.30
2019-03-12T23:19:43.945Z,5.35
2019-03-12T23:22:30.787Z,5.25
2019-03-12T23:25:17.728Z,5.25
2019-03-12T23:28:04.535Z,5.47
2019-03-12T23:30:51.164Z,5.39
2019-03-12T23:33:39.602Z,5.41
2019-03-12T23:36:26.458Z,5.43
2019-03-12T23:39:13.152Z,5.18
2019-03-12T23:42:00.227Z,5.30
2019-03-12T23:44:46.715Z,5.09
2019-03-12T23:47:35.991Z,5.11
2019-03-12T23:50:23.334Z,5.22
2019-03-12T23:53:09.801Z,5.02
2019-03-12T23:55:56.407Z,5.24
2019-03-12T23:58:43.845Z,5.19
